Kvitbjoern — LM9158 — position and weather

sailwx.info

Track history (hours):
 
Tides and Currents Weather Stations Pressure Air Temp Water Temp Dewpoint Dewpoint Depression Visibility Wind Speed Wind Dir Waves Ship Positions

Kvitbjoern

Last reported at 2015-Sep-04 18:28 UTC. Time now 2015-Sep-04 23:14 UTC.
Position N 66°22' E 012°21'.

Length 10 m.

Type: Fishing. MMSI: 257454420.

Date/timePositionNaut miles runAvg speedWind from/ knotsBaromVisibWave heightAir tempDewpointWater temp
2015-Sep-04 18:28N 66°22' E 012°21'0 0.0
2015-Sep-04 17:28N 66°22' E 012°21'0 0.0
2015-Sep-04 16:28N 66°22' E 012°21'0 0.0
2015-Sep-04 15:28N 66°22' E 012°21'0 0.0
2015-Sep-04 14:28N 66°22' E 012°21'0 0.0
2015-Sep-04 13:28N 66°22' E 012°21'0 0.0
2015-Sep-04 12:28N 66°22' E 012°21'0 0.0
2015-Sep-04 11:28N 66°22' E 012°21'0 0.0
2015-Sep-04 10:16N 66°22' E 012°21'0 0.0
2015-Sep-04 09:30N 66°22' E 012°21'0 0.0
2015-Sep-04 08:29N 66°22' E 012°21'0 0.0
2015-Sep-03 17:24N 66°22' E 012°21'0 0.0
2015-Sep-03 16:28N 66°22' E 012°21'3 2.9
2015-Sep-03 15:33N 66°22' E 012°28'2 0.7
2015-Sep-03 12:21N 66°24' E 012°27'1 0.7
2015-Sep-03 11:29N 66°23' E 012°26'0 0.4
2015-Sep-03 10:31N 66°23' E 012°25'0 0.4
2015-Sep-03 09:28N 66°23' E 012°24'0 0.2
2015-Sep-03 08:33N 66°23' E 012°24'0 0.2
2015-Sep-03 07:28N 66°23' E 012°24'1 0.7
2015-Sep-03 06:31N 66°22' E 012°24'0 0.4
2015-Sep-03 05:29N 66°22' E 012°24'0 0.4
2015-Sep-03 04:33N 66°22' E 012°23'0 0.3
2015-Sep-03 03:33N 66°22' E 012°23'1 0.1
2015-Sep-02 16:27N 66°22' E 012°21'0 0.0
2015-Sep-02 15:15N 66°22' E 012°21'1 0.8
2015-Sep-02 14:33N 66°22' E 012°23'4 1.7
2015-Sep-02 12:05N 66°24' E 012°32'2 4.2
2015-Sep-02 11:33N 66°24' E 012°27'0 0.4
2015-Sep-02 10:29N 66°23' E 012°26'0 0.5
2015-Sep-02 09:30N 66°23' E 012°25'0 0.4
2015-Sep-02 08:32N 66°23' E 012°24'0 0.2
2015-Sep-02 07:28N 66°23' E 012°24'1 0.6
2015-Sep-02 06:32N 66°22' E 012°24'0 0.2
2015-Sep-02 05:33N 66°22' E 012°24'0 0.1
2015-Sep-02 04:31N 66°22' E 012°24'0 0.1
2015-Sep-02 03:29N 66°22' E 012°23'1 0.1
2015-Sep-01 16:32N 66°22' E 012°21'0 0.0
2015-Sep-01 15:32N 66°22' E 012°21'0 0.0
2015-Sep-01 13:29N 66°22' E 012°21'0 0.0
2015-Sep-01 12:29N 66°22' E 012°21'0 0.0
2015-Sep-01 11:29N 66°22' E 012°21'2 1.8
2015-Sep-01 10:33N 66°23' E 012°25'3 1.3
2015-Sep-01 08:30N 66°22' E 012°31'3 2.8
2015-Sep-01 07:31N 66°23' E 012°24'0 0.4
2015-Sep-01 06:33N 66°22' E 012°24'0 0.3
2015-Sep-01 05:23N 66°22' E 012°23'1 0.7
2015-Sep-01 04:25N 66°21' E 012°24'0 0.3
2015-Sep-01 03:33N 66°22' E 012°23'1 0.1
2015-Aug-31 16:15N 66°22' E 012°21'2 3.1
2015-Aug-31 15:32N 66°22' E 012°27'3 1.3
2015-Aug-31 13:26N 66°22' E 012°33'4 4.3
2015-Aug-31 12:30N 66°22' E 012°23'0 0.1
2015-Aug-31 11:30N 66°22' E 012°23'1 0.9
2015-Aug-31 10:30N 66°23' E 012°24'0 0.4
2015-Aug-31 09:30N 66°23' E 012°24'1 0.8
2015-Aug-31 08:33N 66°23' E 012°25'0 0.2
2015-Aug-31 07:33N 66°23' E 012°25'0 0.4
2015-Aug-31 06:23N 66°23' E 012°26'1 0.8
2015-Aug-31 05:30N 66°23' E 012°26'0 0.1
2015-Aug-31 04:29N 66°23' E 012°26'2 2.2
2015-Aug-31 03:31N 66°22' E 012°21'  
2015-Aug-28 10:29N 66°22' E 012°21'0 0.0
2015-Aug-28 09:23N 66°22' E 012°21'0 0.0
2015-Aug-28 07:16N 66°22' E 012°21'0 0.0
2015-Aug-27 16:29N 66°22' E 012°21'0 0.0
2015-Aug-27 15:28N 66°22' E 012°21'3 3.4
2015-Aug-27 14:32N 66°24' E 012°28'2 1.0
2015-Aug-27 12:19N 66°22' E 012°30'2 2.9
2015-Aug-27 11:33N 66°23' E 012°26'0 0.1
2015-Aug-27 10:29N 66°23' E 012°25'1 0.9
2015-Aug-27 09:32N 66°23' E 012°26'1 0.6
2015-Aug-27 08:29N 66°23' E 012°25'0 0.3
2015-Aug-27 07:33N 66°23' E 012°24'0 0.3
2015-Aug-27 06:33N 66°23' E 012°24'1 1.3
2015-Aug-27 05:31N 66°21' E 012°24'0 0.2
2015-Aug-27 04:31N 66°21' E 012°23'1 0.5
2015-Aug-27 03:29N 66°22' E 012°23'1 0.1
2015-Aug-26 17:18N 66°22' E 012°21'0 0.0
2015-Aug-26 16:30N 66°22' E 012°21'0 0.0
2015-Aug-26 15:30N 66°22' E 012°21'5 5.5
2015-Aug-26 14:31N 66°23' E 012°35'3 1.5
2015-Aug-26 12:31N 66°24' E 012°27'0 0.4
2015-Aug-26 11:29N 66°24' E 012°26'1 1.0
2015-Aug-26 10:33N 66°23' E 012°26'0 0.3
2015-Aug-26 09:33N 66°23' E 012°25'0 0.3
2015-Aug-26 08:32N 66°23' E 012°25'0 0.4
2015-Aug-26 07:28N 66°23' E 012°24'0 0.1
2015-Aug-26 06:33N 66°23' E 012°24'1 1.1
2015-Aug-26 05:32N 66°21' E 012°24'1 0.5
2015-Aug-26 04:32N 66°22' E 012°23'0 0.1
2015-Aug-26 03:30N 66°22' E 012°23'  
Track history (hours):
 
Tides and Currents Weather Stations Pressure Air Temp Water Temp Dewpoint Dewpoint Depression Visibility Wind Speed Wind Dir Waves Ship Positions

Kvitbjoern

Last reported at 2015-Sep-04 18:28 UTC. Time now 2015-Sep-04 23:14 UTC.
Position N 66°22' E 012°21'.

Length 10 m.

Type: Fishing. MMSI: 257454420.

Date/timePositionNaut miles runAvg speedWind from/ knotsBaromVisibWave heightAir tempDewpointWater temp
2015-Sep-04 18:28N 66°22' E 012°21'0 0.0
2015-Sep-04 17:28N 66°22' E 012°21'0 0.0
2015-Sep-04 16:28N 66°22' E 012°21'0 0.0
2015-Sep-04 15:28N 66°22' E 012°21'0 0.0
2015-Sep-04 14:28N 66°22' E 012°21'0 0.0
2015-Sep-04 13:28N 66°22' E 012°21'0 0.0
2015-Sep-04 12:28N 66°22' E 012°21'0 0.0
2015-Sep-04 11:28N 66°22' E 012°21'0 0.0
2015-Sep-04 10:16N 66°22' E 012°21'0 0.0
2015-Sep-04 09:30N 66°22' E 012°21'0 0.0
2015-Sep-04 08:29N 66°22' E 012°21'0 0.0
2015-Sep-03 17:24N 66°22' E 012°21'0 0.0
2015-Sep-03 16:28N 66°22' E 012°21'3 2.9
2015-Sep-03 15:33N 66°22' E 012°28'2 0.7
2015-Sep-03 12:21N 66°24' E 012°27'1 0.7
2015-Sep-03 11:29N 66°23' E 012°26'0 0.4
2015-Sep-03 10:31N 66°23' E 012°25'0 0.4
2015-Sep-03 09:28N 66°23' E 012°24'0 0.2
2015-Sep-03 08:33N 66°23' E 012°24'0 0.2
2015-Sep-03 07:28N 66°23' E 012°24'1 0.7
2015-Sep-03 06:31N 66°22' E 012°24'0 0.4
2015-Sep-03 05:29N 66°22' E 012°24'0 0.4
2015-Sep-03 04:33N 66°22' E 012°23'0 0.3
2015-Sep-03 03:33N 66°22' E 012°23'1 0.1
2015-Sep-02 16:27N 66°22' E 012°21'0 0.0
2015-Sep-02 15:15N 66°22' E 012°21'1 0.8
2015-Sep-02 14:33N 66°22' E 012°23'4 1.7
2015-Sep-02 12:05N 66°24' E 012°32'2 4.2
2015-Sep-02 11:33N 66°24' E 012°27'0 0.4
2015-Sep-02 10:29N 66°23' E 012°26'0 0.5
2015-Sep-02 09:30N 66°23' E 012°25'0 0.4
2015-Sep-02 08:32N 66°23' E 012°24'0 0.2
2015-Sep-02 07:28N 66°23' E 012°24'1 0.6
2015-Sep-02 06:32N 66°22' E 012°24'0 0.2
2015-Sep-02 05:33N 66°22' E 012°24'0 0.1
2015-Sep-02 04:31N 66°22' E 012°24'0 0.1
2015-Sep-02 03:29N 66°22' E 012°23'1 0.1
2015-Sep-01 16:32N 66°22' E 012°21'0 0.0
2015-Sep-01 15:32N 66°22' E 012°21'0 0.0
2015-Sep-01 13:29N 66°22' E 012°21'0 0.0
2015-Sep-01 12:29N 66°22' E 012°21'0 0.0
2015-Sep-01 11:29N 66°22' E 012°21'2 1.8
2015-Sep-01 10:33N 66°23' E 012°25'3 1.3
2015-Sep-01 08:30N 66°22' E 012°31'3 2.8
2015-Sep-01 07:31N 66°23' E 012°24'0 0.4
2015-Sep-01 06:33N 66°22' E 012°24'0 0.3
2015-Sep-01 05:23N 66°22' E 012°23'1 0.7
2015-Sep-01 04:25N 66°21' E 012°24'0 0.3
2015-Sep-01 03:33N 66°22' E 012°23'1 0.1
2015-Aug-31 16:15N 66°22' E 012°21'2 3.1
2015-Aug-31 15:32N 66°22' E 012°27'3 1.3
2015-Aug-31 13:26N 66°22' E 012°33'4 4.3
2015-Aug-31 12:30N 66°22' E 012°23'0 0.1
2015-Aug-31 11:30N 66°22' E 012°23'1 0.9
2015-Aug-31 10:30N 66°23' E 012°24'0 0.4
2015-Aug-31 09:30N 66°23' E 012°24'1 0.8
2015-Aug-31 08:33N 66°23' E 012°25'0 0.2
2015-Aug-31 07:33N 66°23' E 012°25'0 0.4
2015-Aug-31 06:23N 66°23' E 012°26'1 0.8
2015-Aug-31 05:30N 66°23' E 012°26'0 0.1
2015-Aug-31 04:29N 66°23' E 012°26'2 2.2
2015-Aug-31 03:31N 66°22' E 012°21'  
2015-Aug-28 10:29N 66°22' E 012°21'0 0.0
2015-Aug-28 09:23N 66°22' E 012°21'0 0.0
2015-Aug-28 07:16N 66°22' E 012°21'0 0.0
2015-Aug-27 16:29N 66°22' E 012°21'0 0.0
2015-Aug-27 15:28N 66°22' E 012°21'3 3.4
2015-Aug-27 14:32N 66°24' E 012°28'2 1.0
2015-Aug-27 12:19N 66°22' E 012°30'2 2.9
2015-Aug-27 11:33N 66°23' E 012°26'0 0.1
2015-Aug-27 10:29N 66°23' E 012°25'1 0.9
2015-Aug-27 09:32N 66°23' E 012°26'1 0.6
2015-Aug-27 08:29N 66°23' E 012°25'0 0.3
2015-Aug-27 07:33N 66°23' E 012°24'0 0.3
2015-Aug-27 06:33N 66°23' E 012°24'1 1.3
2015-Aug-27 05:31N 66°21' E 012°24'0 0.2
2015-Aug-27 04:31N 66°21' E 012°23'1 0.5
2015-Aug-27 03:29N 66°22' E 012°23'1 0.1
2015-Aug-26 17:18N 66°22' E 012°21'0 0.0
2015-Aug-26 16:30N 66°22' E 012°21'0 0.0
2015-Aug-26 15:30N 66°22' E 012°21'5 5.5
2015-Aug-26 14:31N 66°23' E 012°35'3 1.5
2015-Aug-26 12:31N 66°24' E 012°27'0 0.4
2015-Aug-26 11:29N 66°24' E 012°26'1 1.0
2015-Aug-26 10:33N 66°23' E 012°26'0 0.3
2015-Aug-26 09:33N 66°23' E 012°25'0 0.3
2015-Aug-26 08:32N 66°23' E 012°25'0 0.4
2015-Aug-26 07:28N 66°23' E 012°24'0 0.1
2015-Aug-26 06:33N 66°23' E 012°24'1 1.1
2015-Aug-26 05:32N 66°21' E 012°24'1 0.5
2015-Aug-26 04:32N 66°22' E 012°23'0 0.1
2015-Aug-26 03:30N 66°22' E 012°23'  

Dump ship's entire track history